Skip Navigation Links Skip Navigation Links

Current Weather

Port Auth-Dwntn-Manhattan/Wall St, New York

For information only: do not use for flight planning or navigation.
Latest weather
Observation time Wednesday, August 12, 2020 12:56 PM EDT
Local time Wednesday, August 12, 2020 2:20 PM EDT
Flight conditions Visual Meteorological Conditions
Winds
Wind speed calm
Visibility 10 mi.
Sky condition
Ceiling unlimited
Sky clear
Temperature 92°F
Dewpoint 76°F
Altimeter 30.02 in.Hg
Derived measurements
Relative humidity 60%
Heat index 104°F
Density altitude 2386 ft.
Sea-level pressure 30.01 in.Hg
Remarks
Fully automated report.
Automated weather observing station with precipitation discriminator.
METAR KJRB 121656Z AUTO 00000KT 10SM CLR 33/24 A3002 RMK AO2 SLP164 T03330244

Settings

Location code

InnerDrive.Weather 4.0.6770.0 Release CLR 4.0.30319.42000
Copyright ©2018 Inner Drive Technology. All rights reserved. Portions Copyright ©1986-2018 David Braverman.

Find weather

Site navigation


Skip Navigation Links

Place info

Page info

PayPal - The safer, easier way to pay online!

Return home.

Copyright ©2020 Inner Drive Technology. Purveyors of fine, hand-crafted computer software. Page printed 2020-08-12T18:20:20 UTC.